Airfield :
LOGIN :

Register | Disclaimer

   EN    FR    IT 

 










Legend :    VFR   Marginal VFR   IFR   Intensive IFR   Very Intensive IFR
Visi :
Ceiling :
>= 8 km
>= 3000ft
5 to 8 km
1000 to 3000 ft
1500m to 5 km
500 to 1000 ft
800 to 1500m
200 to 500 ft
< 800m
< 200 ft
Symbols :   Thunderstorms  Fog  Heavy snow  Heavy precipitations  Wind > 20 kt
SIGMETs :     Misc.  Thunderstorms  Icing  Turbulence  Mountain Waves  Volcanic Ashes






- Airport Elevation : 526 ft
- IATA code : LTN


EGGW - London Luton

CURRENT METAR :
  • 291020Z AUTO 25016KT 9999 NCD 05/01 Q1008

EXPIRED METARs :
  • 290950Z AUTO 25014KT 9999 NCD 05/01 Q1008
  • 290920Z AUTO 25012KT 9999 NCD 04/01 Q1008
  • 290850Z AUTO 24010KT 9999 NCD 03/00 Q1007
  • 290820Z AUTO 24011KT 9999 NCD 02/00 Q1007
  • 290750Z AUTO 25011KT 9999 NCD 02/M00 Q1006

TAF TAF EGGW
Valid from the 29 at 06:00 until the 30 at 06:00 UTC


290455Z 2906/3006 25012KT 9999 FEW020
PROB30
TEMPO 2918/2922 22015G25KT 8000 -RA BKN014
BECMG 3003/3006 19005KT 2000 -DZ BR BKN003
ATIS : +44 1582 395 204



MET'MAP, your aeronautical weather chart ! - Copyright ORBIFLY December 2007 - Disclaimer

ORBIFLY MET'MAP TEAM :

Programming & Development : Alexandra Zaïnal
Concept & original design : Baudouin d'Aumeries
Assistance for programming : Marc-Olivier Méhu
Technical & hardware support : Manuel Goepfert

Contact : metmap@orbifly.com




SOURCES & CREDITS :

   NOAA